createdAt,value
2018-01-18T00:00:26.791Z,66.73
2018-01-18T00:01:26.759Z,66.44
2018-01-18T00:02:26.734Z,62.18
2018-01-18T00:03:26.668Z,66.16
2018-01-18T00:04:26.643Z,67.77
2018-01-18T00:05:26.588Z,66.63
2018-01-18T00:06:26.539Z,65.69
2018-01-18T00:07:26.453Z,65.69
2018-01-18T00:08:26.440Z,66.63
2018-01-18T00:09:26.406Z,66.35
2018-01-18T00:10:26.327Z,67.49
2018-01-18T00:11:26.300Z,67.01
2018-01-18T00:12:26.254Z,66.63
2018-01-18T00:13:26.171Z,66.25
2018-01-18T00:14:26.139Z,70.14
2018-01-18T00:15:26.095Z,69.28
2018-01-18T00:16:26.034Z,73.92
2018-01-18T00:17:26.001Z,69.19
2018-01-18T00:18:25.947Z,71.46
2018-01-18T00:19:25.906Z,70.70
2018-01-18T00:20:25.845Z,76.29
2018-01-18T00:21:25.833Z,73.26
2018-01-18T00:22:25.791Z,75.53
2018-01-18T00:23:25.707Z,73.54
2018-01-18T00:24:25.670Z,71.46
2018-01-18T00:25:25.641Z,69.85
2018-01-18T00:26:25.573Z,79.41
2018-01-18T00:27:25.516Z,74.02
2018-01-18T00:28:25.489Z,70.51
2018-01-18T00:29:25.457Z,71.65
2018-01-18T00:30:25.387Z,70.14
2018-01-18T00:31:25.326Z,70.98
2018-01-18T00:32:25.296Z,70.89
2018-01-18T00:33:25.260Z,69.95
2018-01-18T00:34:25.220Z,75.72
2018-01-18T00:35:25.177Z,74.24
2018-01-18T00:36:25.126Z,69.09
2018-01-18T00:37:25.069Z,73.83
2018-01-18T00:38:25.028Z,75.05
2018-01-18T00:39:24.970Z,73.58
2018-01-18T00:40:24.913Z,77.18
2018-01-18T00:41:25.379Z,74.33
2018-01-18T00:42:24.835Z,76.14
2018-01-18T00:43:24.804Z,77.18
2018-01-18T00:44:24.738Z,78.79
2018-01-18T00:45:24.699Z,77.84
2018-01-18T00:46:24.653Z,75.85
2018-01-18T00:47:24.606Z,77.84
2018-01-18T00:48:24.566Z,78.69
2018-01-18T00:49:24.500Z,75.00
2018-01-18T00:50:24.482Z,76.99
2018-01-18T00:51:24.404Z,75.66
2018-01-18T00:52:24.363Z,78.41
2018-01-18T00:53:24.317Z,79.07
2018-01-18T00:54:24.289Z,74.15
2018-01-18T00:55:24.218Z,77.84
2018-01-18T00:56:24.201Z,76.32
2018-01-18T00:57:24.189Z,73.39
2018-01-18T00:58:24.089Z,77.08
2018-01-18T00:59:24.046Z,79.26
2018-01-18T01:00:23.989Z,75.85
2018-01-18T01:01:23.964Z,74.43
2018-01-18T01:02:23.915Z,73.49
2018-01-18T01:03:23.875Z,74.52
2018-01-18T01:04:23.805Z,73.86
2018-01-18T01:05:23.786Z,74.11
2018-01-18T01:06:23.726Z,70.74
2018-01-18T01:07:23.646Z,72.97
2018-01-18T01:08:23.623Z,68.65
2018-01-18T01:09:23.605Z,70.93
2018-01-18T01:10:23.516Z,69.13
2018-01-18T01:11:23.469Z,71.97
2018-01-18T01:12:23.433Z,72.12
2018-01-18T01:13:23.434Z,70.89
2018-01-18T01:14:23.338Z,68.33
2018-01-18T01:15:23.294Z,69.85
2018-01-18T01:16:23.262Z,69.09
2018-01-18T01:17:23.223Z,68.43
2018-01-18T01:18:23.168Z,70.07
2018-01-18T01:19:23.151Z,71.36
2018-01-18T01:20:23.061Z,72.78
2018-01-18T01:21:23.031Z,74.15
2018-01-18T01:22:22.982Z,73.68
2018-01-18T01:23:22.926Z,72.25
2018-01-18T01:24:22.879Z,71.50
2018-01-18T01:25:22.865Z,71.36
2018-01-18T01:26:22.782Z,72.82
2018-01-18T01:27:22.731Z,70.89
2018-01-18T01:28:22.698Z,71.46
2018-01-18T01:29:22.637Z,68.90
2018-01-18T01:30:22.621Z,66.44
2018-01-18T01:31:22.560Z,66.35
2018-01-18T01:32:22.530Z,70.42
2018-01-18T01:33:22.482Z,70.23
2018-01-18T01:34:22.420Z,69.19
2018-01-18T01:35:22.364Z,67.96
2018-01-18T01:36:22.344Z,68.62
2018-01-18T01:37:22.272Z,68.24
2018-01-18T01:38:22.232Z,72.03
2018-01-18T01:39:22.184Z,69.28
2018-01-18T01:40:22.137Z,66.35
2018-01-18T01:41:22.140Z,65.78
2018-01-18T01:42:22.051Z,68.33
2018-01-18T01:43:22.010Z,68.43
2018-01-18T01:44:21.982Z,68.90
2018-01-18T01:45:21.896Z,67.20
2018-01-18T01:46:21.874Z,66.16
2018-01-18T01:47:21.798Z,67.39
2018-01-18T01:48:21.763Z,67.77
2018-01-18T01:49:21.710Z,69.95
2018-01-18T01:50:21.718Z,69.60
2018-01-18T01:51:21.627Z,69.03
2018-01-18T01:52:21.585Z,67.52
2018-01-18T01:53:21.566Z,69.98
2018-01-18T01:54:21.490Z,66.28
2018-01-18T01:55:21.476Z,67.20
2018-01-18T01:56:21.404Z,69.22
2018-01-18T01:57:21.374Z,69.60
2018-01-18T01:58:21.300Z,70.17
2018-01-18T01:59:21.258Z,66.95
2018-01-18T02:00:21.221Z,70.36
2018-01-18T02:01:21.158Z,71.21
2018-01-18T02:02:21.131Z,66.09
2018-01-18T02:03:21.096Z,64.30
2018-01-18T02:04:21.041Z,68.75
2018-01-18T02:05:20.974Z,66.57
2018-01-18T02:06:20.939Z,67.33
2018-01-18T02:07:20.896Z,68.94
2018-01-18T02:08:20.855Z,67.14
2018-01-18T02:09:20.777Z,70.64
2018-01-18T02:10:20.742Z,70.55
2018-01-18T02:11:20.728Z,69.60
2018-01-18T02:12:20.646Z,68.08
2018-01-18T02:13:20.618Z,65.91
2018-01-18T02:14:20.587Z,61.18
2018-01-18T02:15:20.507Z,60.80
2018-01-18T02:16:20.489Z,59.75
2018-01-18T02:17:20.423Z,54.83
2018-01-18T02:18:20.361Z,54.71
2018-01-18T02:19:20.350Z,56.13
2018-01-18T02:20:20.301Z,53.66
2018-01-18T02:21:20.248Z,54.33
2018-01-18T02:22:20.219Z,51.58
2018-01-18T02:23:20.143Z,47.99
2018-01-18T02:24:20.096Z,51.01
2018-01-18T02:25:20.064Z,52.72
2018-01-18T02:26:20.007Z,49.03
2018-01-18T02:27:20.002Z,50.16
2018-01-18T02:28:19.903Z,50.63
2018-01-18T02:29:19.904Z,53.66
2018-01-18T02:30:19.835Z,48.46
2018-01-18T02:31:19.782Z,49.98
2018-01-18T02:32:19.729Z,49.31
2018-01-18T02:33:19.676Z,48.93
2018-01-18T02:34:19.639Z,45.34
2018-01-18T02:35:19.592Z,46.09
2018-01-18T02:36:19.565Z,46.47
2018-01-18T02:37:19.510Z,44.96
2018-01-18T02:38:19.452Z,43.44
2018-01-18T02:39:19.398Z,39.37
2018-01-18T02:40:19.368Z,39.84
2018-01-18T02:41:19.338Z,38.81
2018-01-18T02:42:19.281Z,40.89
2018-01-18T02:43:19.232Z,41.64
2018-01-18T02:44:19.201Z,42.59
2018-01-18T02:45:19.132Z,43.35
2018-01-18T02:46:19.086Z,39.94
2018-01-18T02:47:19.044Z,38.43
2018-01-18T02:48:18.987Z,36.44
2018-01-18T02:49:18.938Z,36.54
2018-01-18T02:50:18.916Z,41.64
2018-01-18T02:51:18.882Z,39.18
2018-01-18T02:52:18.803Z,41.55
2018-01-18T02:53:18.756Z,42.78
2018-01-18T02:54:18.738Z,39.28
2018-01-18T02:55:18.706Z,41.36
2018-01-18T02:56:18.639Z,42.78
2018-01-18T02:57:18.559Z,44.10
2018-01-18T02:58:18.521Z,45.15
2018-01-18T02:59:18.470Z,43.73
2018-01-18T03:00:18.458Z,46.00
2018-01-18T03:01:18.418Z,42.88
2018-01-18T03:02:18.358Z,47.61
2018-01-18T03:03:18.295Z,54.14
2018-01-18T03:04:18.261Z,54.42
2018-01-18T03:05:18.194Z,54.80
2018-01-18T03:06:18.157Z,54.33
2018-01-18T03:07:18.113Z,52.91
2018-01-18T03:08:18.045Z,54.33
2018-01-18T03:09:18.023Z,47.80
2018-01-18T03:10:17.994Z,47.23
2018-01-18T03:11:17.947Z,51.11
2018-01-18T03:12:17.889Z,56.22
2018-01-18T03:13:17.834Z,56.51
2018-01-18T03:14:17.775Z,53.47
2018-01-18T03:15:17.721Z,52.62
2018-01-18T03:16:17.706Z,57.45
2018-01-18T03:17:17.631Z,53.76
2018-01-18T03:18:17.589Z,51.87
2018-01-18T03:19:17.553Z,56.41
2018-01-18T03:20:17.490Z,51.96
2018-01-18T03:21:17.471Z,51.58
2018-01-18T03:22:17.410Z,52.72
2018-01-18T03:23:17.377Z,53.38
2018-01-18T03:24:17.315Z,54.42
2018-01-18T03:25:17.270Z,54.80
2018-01-18T03:26:17.234Z,53.00
2018-01-18T03:27:17.195Z,53.66
2018-01-18T03:28:17.135Z,56.60
2018-01-18T03:29:17.107Z,54.52
2018-01-18T03:30:17.075Z,53.28
2018-01-18T03:31:16.993Z,54.42
2018-01-18T03:32:16.952Z,53.47
2018-01-18T03:33:16.920Z,51.11
2018-01-18T03:34:16.859Z,50.16
2018-01-18T03:35:16.819Z,48.65
2018-01-18T03:36:16.772Z,48.36
2018-01-18T03:37:16.735Z,46.00
2018-01-18T03:38:16.665Z,49.79
2018-01-18T03:39:16.635Z,46.56
2018-01-18T03:40:16.599Z,50.92
2018-01-18T03:41:16.537Z,50.07
2018-01-18T03:42:16.485Z,47.13
2018-01-18T03:43:16.464Z,50.26
2018-01-18T03:44:16.436Z,46.00
2018-01-18T03:45:16.379Z,45.34
2018-01-18T03:46:16.306Z,48.84
2018-01-18T03:47:16.273Z,49.41
2018-01-18T03:48:16.215Z,50.26
2018-01-18T03:49:16.211Z,49.31
2018-01-18T03:50:16.122Z,48.46
2018-01-18T03:51:16.084Z,46.94
2018-01-18T03:52:16.018Z,47.80
2018-01-18T03:53:16.006Z,45.72
2018-01-18T03:54:15.945Z,45.72
2018-01-18T03:55:15.905Z,46.85
2018-01-18T03:56:15.844Z,47.80
2018-01-18T03:57:15.799Z,46.09
2018-01-18T03:58:15.756Z,46.94
2018-01-18T03:59:15.703Z,47.23
2018-01-18T04:00:15.662Z,47.04
2018-01-18T04:01:15.608Z,47.99
2018-01-18T04:02:15.578Z,44.48
2018-01-18T04:03:15.543Z,42.50
2018-01-18T04:04:15.477Z,46.09
2018-01-18T04:05:15.456Z,49.12
2018-01-18T04:06:15.372Z,49.03
2018-01-18T04:07:15.331Z,47.04
2018-01-18T04:08:15.320Z,52.94
2018-01-18T04:09:15.263Z,50.00
2018-01-18T04:10:15.182Z,52.84
2018-01-18T04:11:15.151Z,51.99
2018-01-18T04:12:15.106Z,51.89
2018-01-18T04:13:15.063Z,50.16
2018-01-18T04:14:15.020Z,53.03
2018-01-18T04:15:14.966Z,50.28
2018-01-18T04:16:14.915Z,52.94
2018-01-18T04:17:14.875Z,50.66
2018-01-18T04:18:14.813Z,50.16
2018-01-18T04:19:14.795Z,52.15
2018-01-18T04:20:14.706Z,50.07
2018-01-18T04:21:14.680Z,46.56
2018-01-18T04:22:14.637Z,45.72
2018-01-18T04:23:14.593Z,52.34
2018-01-18T04:24:14.561Z,53.57
2018-01-18T04:25:14.499Z,51.20
2018-01-18T04:26:14.479Z,49.98
2018-01-18T04:27:14.411Z,54.33
2018-01-18T04:28:14.354Z,56.06
2018-01-18T04:29:14.323Z,54.93
2018-01-18T04:30:14.281Z,52.65
2018-01-18T04:31:14.213Z,51.30
2018-01-18T04:32:14.189Z,52.81
2018-01-18T04:33:14.130Z,53.50
2018-01-18T04:34:14.075Z,52.44
2018-01-18T04:35:14.063Z,49.03
2018-01-18T04:36:14.016Z,47.13
2018-01-18T04:37:13.933Z,51.20
2018-01-18T04:38:13.923Z,53.66
2018-01-18T04:39:13.868Z,54.23
2018-01-18T04:40:13.805Z,53.38
2018-01-18T04:41:13.752Z,50.16
2018-01-18T04:42:13.730Z,51.61
2018-01-18T04:43:13.699Z,52.65
2018-01-18T04:44:13.653Z,50.92
2018-01-18T04:45:13.591Z,54.83
2018-01-18T04:46:13.543Z,54.83
2018-01-18T04:47:13.515Z,53.69
2018-01-18T04:48:13.448Z,54.83
2018-01-18T04:49:13.393Z,55.96
2018-01-18T04:50:13.372Z,53.69
2018-01-18T04:51:13.311Z,50.57
2018-01-18T04:52:13.236Z,56.44
2018-01-18T04:53:13.218Z,55.87
2018-01-18T04:54:13.181Z,54.45
2018-01-18T04:55:13.109Z,52.46
2018-01-18T04:56:13.100Z,56.25
2018-01-18T04:57:13.030Z,58.62
2018-01-18T04:58:12.967Z,50.00
2018-01-18T04:59:12.915Z,59.84
2018-01-18T05:00:12.881Z,59.09
2018-01-18T05:01:12.853Z,54.93
2018-01-18T05:02:12.764Z,56.25
2018-01-18T05:03:12.767Z,54.35
2018-01-18T05:04:12.704Z,52.27
2018-01-18T05:05:12.673Z,57.01
2018-01-18T05:06:12.579Z,51.61
2018-01-18T05:07:12.565Z,55.96
2018-01-18T05:08:12.504Z,55.40
2018-01-18T05:09:12.464Z,52.84
2018-01-18T05:10:12.421Z,54.64
2018-01-18T05:11:12.385Z,53.88
2018-01-18T05:12:12.370Z,52.94
2018-01-18T05:13:12.301Z,51.99
2018-01-18T05:14:12.222Z,53.22
2018-01-18T05:15:12.168Z,51.23
2018-01-18T05:16:12.144Z,52.94
2018-01-18T05:17:12.110Z,52.46
2018-01-18T05:18:12.052Z,49.62
2018-01-18T05:19:12.000Z,50.00
2018-01-18T05:20:11.976Z,51.89
2018-01-18T05:21:11.908Z,48.49
2018-01-18T05:22:11.885Z,52.08
2018-01-18T05:23:11.830Z,52.18
2018-01-18T05:24:11.807Z,51.51
2018-01-18T05:25:11.733Z,52.37
2018-01-18T05:26:11.664Z,44.79
2018-01-18T05:27:11.656Z,47.44
2018-01-18T05:28:11.606Z,48.01
2018-01-18T05:29:11.567Z,46.59
2018-01-18T05:30:11.491Z,43.82
2018-01-18T05:31:11.493Z,44.03
2018-01-18T05:32:11.397Z,43.94
2018-01-18T05:33:46.993Z,44.41
2018-01-18T05:34:11.300Z,42.61
2018-01-18T05:35:11.249Z,41.76
2018-01-18T05:36:11.217Z,41.76
2018-01-18T05:37:11.151Z,42.90
2018-01-18T05:38:11.145Z,40.72
2018-01-18T05:39:11.067Z,39.96
2018-01-18T05:40:11.040Z,44.51
2018-01-18T05:41:10.972Z,43.94
2018-01-18T05:42:10.947Z,46.97
2018-01-18T05:43:10.911Z,41.38
2018-01-18T05:44:10.855Z,42.99
2018-01-18T05:45:10.873Z,39.58
2018-01-18T05:46:10.743Z,41.09
2018-01-18T05:47:10.704Z,45.55
2018-01-18T05:48:10.656Z,45.93
2018-01-18T05:49:11.180Z,44.98
2018-01-18T05:50:10.561Z,38.92
2018-01-18T05:51:10.524Z,41.00
2018-01-18T05:52:10.472Z,41.00
2018-01-18T05:53:10.466Z,38.07
2018-01-18T05:54:10.384Z,35.79
2018-01-18T05:55:10.361Z,39.11
2018-01-18T05:56:10.288Z,38.82
2018-01-18T05:57:10.250Z,39.01
2018-01-18T05:58:10.214Z,35.32
2018-01-18T05:59:10.169Z,39.01
2018-01-18T06:00:10.117Z,36.83
2018-01-18T06:01:10.082Z,36.74
2018-01-18T06:02:10.028Z,36.46
2018-01-18T06:03:09.958Z,37.12
2018-01-18T06:04:09.921Z,37.97
2018-01-18T06:05:09.900Z,34.66
2018-01-18T06:06:09.846Z,34.38
2018-01-18T06:07:09.830Z,38.54
2018-01-18T06:08:09.785Z,36.55
2018-01-18T06:09:09.691Z,38.54
2018-01-18T06:10:09.654Z,36.27
2018-01-18T06:11:09.608Z,36.93
2018-01-18T06:12:09.578Z,35.60
2018-01-18T06:13:09.514Z,34.84
2018-01-18T06:14:09.454Z,33.90
2018-01-18T06:15:09.408Z,35.32
2018-01-18T06:16:09.399Z,31.25
2018-01-18T06:17:09.325Z,31.53
2018-01-18T06:18:09.310Z,30.21
2018-01-18T06:19:09.265Z,32.48
2018-01-18T06:20:09.202Z,33.62
2018-01-18T06:21:09.156Z,29.16
2018-01-18T06:22:09.106Z,33.04
2018-01-18T06:23:09.056Z,33.43
2018-01-18T06:24:08.996Z,32.67
2018-01-18T06:25:08.958Z,32.10
2018-01-18T06:26:08.928Z,35.60
2018-01-18T06:27:08.880Z,36.74
2018-01-18T06:28:08.832Z,32.39
2018-01-18T06:29:08.797Z,32.29
2018-01-18T06:30:08.827Z,30.96
2018-01-18T06:31:08.685Z,32.20
2018-01-18T06:32:08.673Z,27.84
2018-01-18T06:33:08.604Z,29.16
2018-01-18T06:34:08.560Z,27.27
2018-01-18T06:35:08.540Z,28.22
2018-01-18T06:36:08.470Z,29.92
2018-01-18T06:37:08.399Z,25.00
2018-01-18T06:38:08.353Z,26.32
2018-01-18T06:39:08.316Z,30.11
2018-01-18T06:40:08.255Z,29.45
2018-01-18T06:41:08.239Z,31.06
2018-01-18T06:42:08.170Z,29.64
2018-01-18T06:43:08.145Z,27.56
2018-01-18T06:44:08.082Z,30.21
2018-01-18T06:45:08.044Z,29.64
2018-01-18T06:46:07.991Z,28.50
2018-01-18T06:47:07.937Z,28.69
2018-01-18T06:48:07.926Z,28.78
2018-01-18T06:49:07.850Z,31.06
2018-01-18T06:50:07.802Z,31.63
2018-01-18T06:51:07.767Z,29.73
2018-01-18T06:52:07.723Z,30.30
2018-01-18T06:53:07.668Z,30.96
2018-01-18T06:54:07.625Z,30.30
2018-01-18T06:55:07.578Z,30.21
2018-01-18T06:56:07.545Z,31.34
2018-01-18T06:57:07.488Z,31.34
2018-01-18T06:58:07.463Z,28.78
2018-01-18T06:59:07.399Z,28.69
2018-01-18T07:00:07.361Z,28.03
2018-01-18T07:01:07.321Z,28.97
2018-01-18T07:02:07.256Z,27.94
2018-01-18T07:03:07.227Z,29.16
2018-01-18T07:04:07.173Z,27.94
2018-01-18T07:05:07.152Z,27.37
2018-01-18T07:06:07.093Z,24.24
2018-01-18T07:07:07.020Z,24.33
2018-01-18T07:08:06.984Z,23.77
2018-01-18T07:09:06.948Z,20.92
2018-01-18T07:10:06.902Z,22.82
2018-01-18T07:11:06.866Z,21.88
2018-01-18T07:12:06.818Z,21.59
2018-01-18T07:13:06.803Z,23.39
2018-01-18T07:14:06.713Z,20.36
2018-01-18T07:15:06.676Z,20.73
2018-01-18T07:16:06.600Z,18.94
2018-01-18T07:17:06.571Z,16.09
2018-01-18T07:18:06.529Z,14.86
2018-01-18T07:19:06.468Z,16.09
2018-01-18T07:20:06.429Z,14.29
2018-01-18T07:21:06.379Z,13.73
2018-01-18T07:22:06.352Z,12.97
2018-01-18T07:23:06.292Z,15.72
2018-01-18T07:24:06.245Z,15.25
2018-01-18T07:25:06.195Z,12.59
2018-01-18T07:26:06.152Z,9.94
2018-01-18T07:27:06.116Z,9.09
2018-01-18T07:28:06.051Z,10.79
2018-01-18T07:29:06.007Z,10.60
2018-01-18T07:30:05.982Z,11.55
2018-01-18T07:31:05.928Z,12.02
2018-01-18T07:32:05.889Z,12.31
2018-01-18T07:33:05.843Z,12.88
2018-01-18T07:34:05.804Z,11.83
2018-01-18T07:35:05.726Z,12.50
2018-01-18T07:36:05.725Z,11.93
2018-01-18T07:37:05.654Z,10.51
2018-01-18T07:38:05.631Z,9.09
2018-01-18T07:39:05.551Z,8.14
2018-01-18T07:40:05.515Z,10.22
2018-01-18T07:41:05.473Z,11.65
2018-01-18T07:42:10.058Z,9.66
2018-01-18T07:43:05.400Z,12.02
2018-01-18T07:44:05.323Z,7.20
2018-01-18T07:45:05.278Z,8.42
2018-01-18T07:46:05.221Z,10.41
2018-01-18T07:47:05.202Z,13.45
2018-01-18T07:48:05.162Z,8.52
2018-01-18T07:49:05.094Z,8.90
2018-01-18T07:50:05.069Z,10.22
2018-01-18T07:51:04.995Z,10.60
2018-01-18T07:52:04.942Z,10.13
2018-01-18T07:53:04.922Z,8.04
2018-01-18T07:54:04.861Z,10.32
2018-01-18T07:55:04.824Z,6.91
2018-01-18T07:56:04.776Z,8.52
2018-01-18T07:57:04.725Z,6.25
2018-01-18T07:58:04.747Z,7.67
2018-01-18T07:59:04.635Z,6.91
2018-01-18T08:00:04.581Z,5.87
2018-01-18T08:01:04.537Z,2.84
2018-01-18T08:02:04.488Z,3.31
2018-01-18T08:03:04.465Z,8.42
2018-01-18T08:04:04.416Z,6.82
2018-01-18T08:05:04.354Z,5.11
2018-01-18T08:06:04.327Z,5.40
2018-01-18T08:07:04.262Z,3.31
2018-01-18T08:08:04.231Z,6.63
2018-01-18T08:09:04.184Z,5.58
2018-01-18T08:10:04.123Z,6.44
2018-01-18T08:11:04.078Z,9.56
2018-01-18T08:12:04.051Z,3.31
2018-01-18T08:13:03.993Z,9.28
2018-01-18T08:14:03.941Z,12.59
2018-01-18T08:15:03.908Z,15.34
2018-01-18T08:16:03.846Z,16.28
2018-01-18T08:17:03.819Z,13.35
2018-01-18T08:18:03.759Z,11.93
2018-01-18T08:19:03.729Z,16.76
2018-01-18T08:20:03.666Z,15.05
2018-01-18T08:21:03.641Z,13.26
2018-01-18T08:22:03.583Z,12.02
2018-01-18T08:23:03.518Z,11.83
2018-01-18T08:24:03.477Z,22.64
2018-01-18T08:25:03.437Z,20.56
2018-01-18T08:26:03.376Z,19.61
2018-01-18T08:27:03.335Z,22.17
2018-01-18T08:28:03.329Z,23.68
2018-01-18T08:29:03.287Z,23.78
2018-01-18T08:30:03.204Z,27.95
2018-01-18T08:31:03.160Z,30.41
2018-01-18T08:32:03.149Z,34.30
2018-01-18T08:33:03.093Z,33.35
2018-01-18T08:34:03.015Z,32.21
2018-01-18T08:35:02.980Z,33.82
2018-01-18T08:36:02.930Z,42.35
2018-01-18T08:37:02.892Z,36.19
2018-01-18T08:38:02.863Z,37.80
2018-01-18T08:39:02.788Z,41.02
2018-01-18T08:40:02.765Z,42.73
2018-01-18T08:41:02.715Z,47.30
2018-01-18T08:42:02.657Z,48.98
2018-01-18T08:43:02.631Z,48.91
2018-01-18T08:44:02.570Z,50.62
2018-01-18T08:45:02.528Z,55.07
2018-01-18T08:46:02.484Z,56.40
2018-01-18T08:47:02.438Z,56.97
2018-01-18T08:48:02.397Z,62.37
2018-01-18T08:49:02.332Z,62.37
2018-01-18T08:50:02.288Z,56.49
2018-01-18T08:51:02.263Z,60.10
2018-01-18T08:52:02.220Z,64.08
2018-01-18T08:53:02.169Z,57.54
2018-01-18T08:54:02.116Z,69.67
2018-01-18T08:55:02.073Z,68.63
2018-01-18T08:56:02.024Z,67.11
2018-01-18T08:57:01.975Z,61.61
2018-01-18T08:58:01.933Z,68.91
2018-01-18T08:59:01.906Z,60.38
2018-01-18T09:00:01.867Z,65.22
2018-01-18T09:01:01.798Z,64.17
2018-01-18T09:02:01.773Z,66.54
2018-01-18T09:03:01.718Z,66.64
2018-01-18T09:04:01.667Z,62.75
2018-01-18T09:05:01.621Z,68.15
2018-01-18T09:06:01.574Z,67.02
2018-01-18T09:07:01.554Z,65.88
2018-01-18T09:08:01.487Z,70.84
2018-01-18T09:09:01.460Z,70.65
2018-01-18T09:10:01.471Z,68.76
2018-01-18T09:11:01.355Z,75.59
2018-01-18T09:12:01.321Z,74.45
2018-01-18T09:13:03.356Z,69.23
2018-01-18T09:14:01.222Z,68.29
2018-01-18T09:15:01.180Z,66.54
2018-01-18T09:16:01.151Z,70.15
2018-01-18T09:17:01.096Z,67.49
2018-01-18T09:18:01.044Z,67.11
2018-01-18T09:19:01.021Z,66.54
2018-01-18T09:20:00.958Z,66.54
2018-01-18T09:21:00.915Z,65.97
2018-01-18T09:22:00.864Z,63.79
2018-01-18T09:23:00.829Z,69.10
2018-01-18T09:24:00.779Z,70.62
2018-01-18T09:25:00.730Z,74.03
2018-01-18T09:26:00.684Z,74.35
2018-01-18T09:27:00.643Z,74.26
2018-01-18T09:28:00.611Z,71.66
2018-01-18T09:29:00.572Z,70.28
2018-01-18T09:30:00.522Z,75.07
2018-01-18T09:31:00.527Z,73.79
2018-01-18T09:32:00.434Z,70.81
2018-01-18T09:33:00.403Z,74.26
2018-01-18T09:34:00.335Z,76.25
2018-01-18T09:35:00.289Z,78.34
2018-01-18T09:36:00.253Z,76.06
2018-01-18T09:37:00.216Z,71.89
2018-01-18T09:38:00.164Z,71.28
2018-01-18T09:39:00.117Z,73.03
2018-01-18T09:40:00.075Z,75.78
2018-01-18T09:41:00.025Z,77.29
2018-01-18T09:41:59.995Z,74.92
2018-01-18T09:42:59.965Z,68.95
2018-01-18T09:43:59.902Z,72.08
2018-01-18T09:44:59.862Z,68.57
2018-01-18T09:45:59.816Z,72.74
2018-01-18T09:46:59.818Z,68.85
2018-01-18T09:47:59.732Z,73.03
2018-01-18T09:48:59.686Z,74.16
2018-01-18T09:49:59.671Z,71.60
2018-01-18T09:50:59.615Z,72.55
2018-01-18T09:51:59.549Z,71.51
2018-01-18T09:52:59.498Z,73.97
2018-01-18T09:53:59.477Z,72.64
2018-01-18T09:54:59.426Z,71.98
2018-01-18T09:55:59.377Z,67.24
2018-01-18T09:56:59.320Z,69.99
2018-01-18T09:57:59.292Z,69.80
2018-01-18T09:58:59.231Z,66.01
2018-01-18T09:59:59.209Z,64.11
2018-01-18T10:00:59.147Z,67.43
2018-01-18T10:01:59.101Z,65.53
2018-01-18T10:02:59.057Z,69.23
2018-01-18T10:03:59.055Z,67.43
2018-01-18T10:04:58.989Z,68.66
2018-01-18T10:05:58.943Z,59.08
2018-01-18T10:06:58.882Z,62.69
2018-01-18T10:07:58.834Z,64.11
2018-01-18T10:08:58.818Z,64.59
2018-01-18T10:09:58.755Z,65.91
2018-01-18T10:10:58.708Z,64.68
2018-01-18T10:11:58.662Z,69.23
2018-01-18T10:12:58.621Z,67.33
2018-01-18T10:13:58.577Z,63.64
2018-01-18T10:14:58.523Z,68.95
2018-01-18T10:15:58.491Z,68.76
2018-01-18T10:16:58.534Z,62.69
2018-01-18T10:17:58.407Z,53.11
2018-01-18T10:18:58.376Z,69.42
2018-01-18T10:19:58.324Z,56.15
2018-01-18T10:20:58.264Z,67.90
2018-01-18T10:21:58.226Z,65.91
2018-01-18T10:22:58.176Z,64.78
2018-01-18T10:23:58.130Z,64.59
2018-01-18T10:24:58.097Z,69.33
2018-01-18T10:25:58.051Z,62.02
2018-01-18T10:26:58.041Z,62.69
2018-01-18T10:27:57.992Z,60.98
2018-01-18T10:28:57.913Z,67.24
2018-01-18T10:29:57.871Z,66.01
2018-01-18T10:30:57.830Z,61.65
2018-01-18T10:31:57.836Z,66.48
2018-01-18T10:32:57.742Z,68.10
2018-01-18T10:33:57.712Z,58.23
2018-01-18T10:34:57.651Z,64.78
2018-01-18T10:35:57.618Z,65.16
2018-01-18T10:36:57.580Z,65.63
2018-01-18T10:37:57.525Z,65.34
2018-01-18T10:38:57.481Z,66.48
2018-01-18T10:39:57.456Z,54.63
2018-01-18T10:40:57.393Z,62.69
2018-01-18T10:41:57.386Z,63.07
2018-01-18T10:42:57.304Z,65.63
2018-01-18T10:43:57.270Z,58.80
2018-01-18T10:44:57.223Z,54.63
2018-01-18T10:45:57.176Z,58.70
2018-01-18T10:46:57.125Z,54.63
2018-01-18T10:47:57.096Z,57.38
2018-01-18T10:48:57.035Z,55.00
2018-01-18T10:49:57.007Z,51.59
2018-01-18T10:50:56.954Z,57.66
2018-01-18T10:51:56.918Z,54.63
2018-01-18T10:52:56.878Z,44.67
2018-01-18T10:53:56.818Z,44.29
2018-01-18T10:54:56.790Z,42.77
2018-01-18T10:55:56.757Z,42.11
2018-01-18T10:56:56.716Z,42.68
2018-01-18T10:57:56.662Z,44.01
2018-01-18T10:58:56.628Z,46.19
2018-01-18T10:59:56.607Z,37.65
2018-01-18T11:00:56.528Z,36.61
2018-01-18T11:01:56.468Z,35.38
2018-01-18T11:02:56.438Z,35.66
2018-01-18T11:03:56.385Z,40.78
2018-01-18T11:04:56.330Z,40.78
2018-01-18T11:05:56.303Z,41.16
2018-01-18T11:06:56.285Z,42.30
2018-01-18T11:07:56.234Z,39.92
2018-01-18T11:08:56.165Z,38.89
2018-01-18T11:09:56.130Z,29.59
2018-01-18T11:10:56.114Z,28.55
2018-01-18T11:11:56.048Z,33.00
2018-01-18T11:12:56.042Z,38.79
2018-01-18T11:13:55.953Z,41.66
2018-01-18T11:14:55.915Z,38.71
2018-01-18T11:15:55.906Z,30.91
2018-01-18T11:16:55.869Z,32.81
2018-01-18T11:17:55.799Z,31.39
2018-01-18T11:18:55.757Z,27.98
2018-01-18T11:19:55.687Z,31.29
2018-01-18T11:20:55.642Z,25.42
2018-01-18T11:21:55.612Z,30.06
2018-01-18T11:22:55.557Z,25.98
2018-01-18T11:23:55.534Z,23.33
2018-01-18T11:24:55.482Z,27.04
2018-01-18T11:25:55.437Z,24.48
2018-01-18T11:26:55.395Z,16.41
2018-01-18T11:27:55.339Z,16.03
2018-01-18T11:28:55.303Z,23.91
2018-01-18T11:29:55.294Z,18.12
2018-01-18T11:30:55.233Z,18.98
2018-01-18T11:31:55.189Z,20.50
2018-01-18T11:32:55.115Z,31.12
2018-01-18T11:33:55.094Z,30.93
2018-01-18T11:34:55.044Z,23.72
2018-01-18T11:35:55.029Z,19.45
2018-01-18T11:36:54.959Z,30.74
2018-01-18T11:37:54.924Z,27.42
2018-01-18T11:38:54.881Z,24.01
2018-01-18T11:39:54.821Z,26.18
2018-01-18T11:40:54.789Z,23.72
2018-01-18T11:41:54.738Z,31.79
2018-01-18T11:42:54.698Z,31.41
2018-01-18T11:43:54.634Z,23.53
2018-01-18T11:44:54.616Z,29.70
2018-01-18T11:45:54.546Z,26.47
2018-01-18T11:46:54.535Z,42.89
2018-01-18T11:47:54.476Z,24.21
2018-01-18T11:48:54.429Z,31.61
2018-01-18T11:49:54.398Z,33.70
2018-01-18T11:50:54.336Z,44.71
2018-01-18T11:51:54.301Z,30.00
2018-01-18T11:52:54.245Z,42.72
2018-01-18T11:53:54.207Z,42.05
2018-01-18T11:54:54.177Z,38.64
2018-01-18T11:55:54.133Z,43.86
2018-01-18T11:56:54.094Z,41.11
2018-01-18T11:57:54.044Z,34.46
2018-01-18T11:58:54.020Z,34.94
2018-01-18T11:59:53.969Z,44.71
2018-01-18T12:00:53.917Z,46.51
2018-01-18T12:01:53.855Z,50.31
2018-01-18T12:02:53.818Z,46.04
2018-01-18T12:03:53.802Z,40.82
2018-01-18T12:04:53.730Z,31.52
2018-01-18T12:05:53.703Z,43.86
2018-01-18T12:06:53.640Z,35.69
2018-01-18T12:07:53.737Z,37.50
2018-01-18T12:08:53.576Z,35.98
2018-01-18T12:09:53.524Z,36.07
2018-01-18T12:10:53.488Z,37.88
2018-01-18T12:11:53.443Z,39.40
2018-01-18T12:12:53.396Z,47.09
2018-01-18T12:13:53.370Z,45.68
2018-01-18T12:14:53.302Z,52.24
2018-01-18T12:15:53.258Z,51.29
2018-01-18T12:16:53.219Z,48.06
2018-01-18T12:17:53.180Z,48.82
2018-01-18T12:18:53.176Z,48.35
2018-01-18T12:19:53.131Z,45.31
2018-01-18T12:20:53.038Z,47.68
2018-01-18T12:21:53.015Z,51.95
2018-01-18T12:22:52.975Z,64.69
2018-01-18T12:23:52.918Z,60.31
2018-01-18T12:24:52.866Z,60.22
2018-01-18T12:25:52.840Z,66.71
2018-01-18T12:26:52.787Z,67.85
2018-01-18T12:27:52.743Z,75.93
2018-01-18T12:28:52.698Z,80.49
2018-01-18T12:29:52.681Z,78.97
2018-01-18T12:30:52.604Z,86.33
2018-01-18T12:31:52.595Z,86.24
2018-01-18T12:32:52.543Z,90.89
2018-01-18T12:33:52.492Z,86.80
2018-01-18T12:34:52.479Z,92.51
2018-01-18T12:35:52.413Z,93.27
2018-01-18T12:36:52.357Z,97.50
2018-01-18T12:37:52.325Z,98.93
2018-01-18T12:38:52.291Z,95.79
2018-01-18T12:39:52.238Z,94.65
2018-01-18T12:40:52.196Z,94.37
2018-01-18T12:41:52.149Z,99.99
2018-01-18T12:42:52.113Z,95.60
2018-01-18T12:43:52.056Z,99.99
2018-01-18T12:44:52.031Z,99.99
2018-01-18T12:45:51.976Z,99.99
2018-01-18T12:46:51.943Z,99.99
2018-01-18T12:47:51.942Z,99.99
2018-01-18T12:48:51.846Z,99.99
2018-01-18T12:49:51.828Z,99.99
2018-01-18T12:50:51.780Z,99.99
2018-01-18T12:51:52.476Z,99.99
2018-01-18T12:52:51.697Z,99.99